Home > Products > Valid Products > MTR

000
SAUS43 KDDC 301757
MTRP28
METAR KP28 301756Z AUTO 36010KT 20/11 A3020 RMK AO1 SLP220 T02000106
10200 20122 50006





000
SAUS43 KDDC 301757
MTRP28
METAR KP28 301756Z AUTO 36010KT 20/11 A3020 RMK AO1 SLP220 T02000106
10200 20122 50006





000
SAUS43 KDDC 301657
MTRP28
METAR KP28 301656Z AUTO 35012KT 19/10 A3021 RMK AO1 SLP223 T01890100





000
SAUS43 KDDC 301657
MTRP28
METAR KP28 301656Z AUTO 35012KT 19/10 A3021 RMK AO1 SLP223 T01890100





000
SAUS43 KDDC 301557
MTRP28
METAR KP28 301556Z AUTO 36015G20KT 17/09 A3020 RMK AO1 SLP219
T01670089





000
SAUS43 KDDC 301457
MTRP28
METAR KP28 301456Z AUTO 36016G25KT 16/09 A3019 RMK AO1 SLP214
T01560094 51004





000
SAUS43 KDDC 301357
MTRP28
METAR KP28 301356Z AUTO 34014G25KT 14/09 A3019 RMK AO1 SLP214
T01390094





000
SAUS43 KDDC 301257
MTRP28
METAR KP28 301256Z AUTO 34015G20KT 13/09 A3019 RMK AO1 SLP213
T01330094





000
SAUS43 KDDC 301257
MTRP28
METAR KP28 301256Z AUTO 34015G20KT 13/09 A3019 RMK AO1 SLP213
T01330094





000
SAUS43 KDDC 301158
MTRP28
METAR KP28 301156Z AUTO 35012G22KT 12/09 A3018 RMK AO1 PK WND
01027/1114 SLP209 T01220094 10167 20122 51031





000
SAUS43 KDDC 301158
MTRP28
METAR KP28 301156Z AUTO 35012G22KT 12/09 A3018 RMK AO1 PK WND
01027/1114 SLP209 T01220094 10167 20122 51031





000
SAUS43 KDDC 301057
MTRP28
METAR KP28 301056Z AUTO 36014KT 13/10 A3016 RMK AO1 PK WND
35026/1004 SLP205 T01280100





000
SAUS43 KDDC 301057
MTRP28
METAR KP28 301056Z AUTO 36014KT 13/10 A3016 RMK AO1 PK WND
35026/1004 SLP205 T01280100





000
SAUS43 KDDC 300957
MTRP28
METAR KP28 300956Z AUTO 35016G22KT 13/10 A3014 RMK AO1 PK WND
35029/0858 SLP194 T01330100





000
SAUS43 KDDC 300857
MTRP28
METAR KP28 300856Z AUTO 36020G31KT 14/11 A3008 RMK AO1 PK WND
36031/0853 SLP174 T01390106 58006





000
SAUS43 KDDC 300757
MTRP28
METAR KP28 300756Z AUTO 36011G21KT 14/12 A3011 RMK AO1 PK WND
33026/0701 SLP184 T01440122





000
SAUS43 KDDC 300658
MTRP28
METAR KP28 300656Z AUTO 34013G20KT 17/13 A3010 RMK AO1 SLP182
T01670133





000
SAUS43 KDDC 300558
MTRP28
METAR KP28 300556Z AUTO 33007KT 16/13 A3010 RMK AO1 SLP182 T01610128
10261 20161 402780139 51034





000
SAUS43 KDDC 300558
MTRP28
METAR KP28 300556Z AUTO 33007KT 16/13 A3010 RMK AO1 SLP182 T01610128
10261 20161 402780139 51034





000
SAUS43 KDDC 300458
MTRP28
METAR KP28 300456Z AUTO 36010KT 17/12 A3006 RMK AO1 SLP170 T01670122





000
SAUS43 KDDC 300358
MTRP28
METAR KP28 300356Z AUTO 01013G22KT 18/13 A3004 RMK AO1 SLP164
T01830128





000
SAUS43 KDDC 300258
MTRP28
METAR KP28 300256Z AUTO 02004KT 21/17 A2999 RMK AO1 SLP145 T02060167
51017





000
SAUS43 KDDC 300258
MTRP28
METAR KP28 300256Z AUTO 02004KT 21/17 A2999 RMK AO1 SLP145 T02060167
51017





000
SAUS43 KDDC 300158
MTRP28
METAR KP28 300156Z AUTO 02003KT 23/17 A2998 RMK AO1 SLP141 T02280167





000
SAUS43 KDDC 300057
MTRP28
METAR KP28 300056Z AUTO 36005KT 25/17 A2996 RMK AO1 SLP133 T02500167





000
SAUS43 KDDC 292357
MTRP28
METAR KP28 292356Z AUTO 00000KT 26/16 A2994 RMK AO1 SLP127 T02610156
10278 20239 55001





000
SAUS43 KDDC 292357
MTRP28
METAR KP28 292356Z AUTO 00000KT 26/16 A2994 RMK AO1 SLP127 T02610156
10278 20239 55001





000
SAUS43 KDDC 292258
MTRP28
METAR KP28 292256Z AUTO 01004KT 27/14 A2994 RMK AO1 SLP126 T02670144





000
SAUS43 KDDC 292258
MTRP28
METAR KP28 292256Z AUTO 01004KT 27/14 A2994 RMK AO1 SLP126 T02670144





000
SAUS43 KDDC 292158
MTRP28
METAR KP28 292156Z AUTO 34005KT 27/16 A2994 RMK AO1 SLP126 T02720156





000
SAUS43 KDDC 292058
MTRP28
METAR KP28 292056Z AUTO VRB03KT 27/14 A2994 RMK AO1 SLP127 T02720139
58011





000
SAUS43 KDDC 291958
MTRP28
METAR KP28 291956Z AUTO 34005KT 27/15 A2995 RMK AO1 SLP131 T02670150





000
SAUS43 KDDC 291858
MTRP28
METAR KP28 291856Z AUTO VRB03KT 26/17 A2997 RMK AO1 SLP136 T02560167





000
SAUS43 KDDC 291758
MTRP28
METAR KP28 291756Z AUTO VRB03KT 24/16 A2998 RMK AO1 SLP139 T02390156
10244 20150 52002





000
SAUS43 KDDC 291758
MTRP28
METAR KP28 291756Z AUTO VRB03KT 24/16 A2998 RMK AO1 SLP139 T02390156
10244 20150 52002





000
SAUS43 KDDC 291658
MTRP28
METAR KP28 291656Z AUTO VRB03KT 23/17 A2998 RMK AO1 SLP139 T02280167





000
SAUS43 KDDC 291658
MTRP28
METAR KP28 291656Z AUTO VRB03KT 23/17 A2998 RMK AO1 SLP139 T02280167





000
SAUS43 KDDC 291557
MTRP28
METAR KP28 291556Z AUTO 00000KT 21/17 A2997 RMK AO1 SLP137 T02110172





000
SAUS43 KDDC 291457
MTRP28
METAR KP28 291456Z AUTO 07005KT 20/17 A2997 RMK AO1 SLP137 T02000167
50001





000
SAUS43 KDDC 291457
MTRP28
METAR KP28 291456Z AUTO 07005KT 20/17 A2997 RMK AO1 SLP137 T02000167
50001





000
SAUS43 KDDC 291357
MTRP28
METAR KP28 291356Z AUTO 36003KT 18/16 A2997 RMK AO1 SLP138 T01830161





000
SAUS43 KDDC 291258
MTRP28
METAR KP28 291256Z AUTO 31003KT 17/16 A2997 RMK AO1 SLP136 T01670156





000
SAUS43 KDDC 291258
MTRP28
METAR KP28 291256Z AUTO 31003KT 17/16 A2997 RMK AO1 SLP136 T01670156





000
SAUS43 KDDC 291158
MTRP28
METAR KP28 291156Z AUTO 00000KT 15/14 A2997 RMK AO1 SLP137 T01500139
10178 20139 53012





000
SAUS43 KDDC 291058
MTRP28
METAR KP28 291056Z AUTO 32003KT 14/14 A2995 RMK AO1 SLP129 T01440139





000
SAUS43 KDDC 291058
MTRP28
METAR KP28 291056Z AUTO 32003KT 14/14 A2995 RMK AO1 SLP129 T01440139





000
SAUS43 KDDC 290958
MTRP28
METAR KP28 290956Z AUTO 00000KT 15/14 A2993 RMK AO1 SLP122 T01500139





000
SAUS43 KDDC 290858
MTRP28
METAR KP28 290856Z AUTO 03005KT 15/14 A2993 RMK AO1 SLP124 T01500144
55000





000
SAUS43 KDDC 290757
MTRP28
METAR KP28 290756Z AUTO 00000KT 16/14 A2991 RMK AO1 SLP117 T01610139





000
SAUS43 KDDC 290657
MTRP28
METAR KP28 290656Z AUTO 00000KT 16/14 A2992 RMK AO1 SLP119 T01610139





000
SAUS43 KDDC 290557
MTRP28
METAR KP28 290556Z AUTO 07009KT 18/14 A2993 RMK AO1 SLP125 T01780139
10261 20178 402780167 50004





000
SAUS43 KDDC 290557
MTRP28
METAR KP28 290556Z AUTO 07009KT 18/14 A2993 RMK AO1 SLP125 T01780139
10261 20178 402780167 50004





000
SAUS43 KDDC 290457
MTRP28
METAR KP28 290456Z AUTO 03010KT 19/14 A2996 RMK AO1 WSHFT 0413
SLP134 T01940144





000
SAUS43 KDDC 290457
MTRP28
METAR KP28 290456Z AUTO 03010KT 19/14 A2996 RMK AO1 WSHFT 0413
SLP134 T01940144





000
SAUS43 KDDC 290434
MTRP28
SPECI KP28 290433Z AUTO 01013G22KT 19/15 A2997 RMK AO1 WSHFT 0413
T01940150





000
SAUS43 KDDC 290434
MTRP28
SPECI KP28 290433Z AUTO 01013G22KT 19/15 A2997 RMK AO1 WSHFT 0413
T01940150





000
SAUS43 KDDC 290357
MTRP28
METAR KP28 290356Z AUTO 18005KT 22/19 A2994 RMK AO1 SLP126 T02220194





000
SAUS43 KDDC 290357
MTRP28
METAR KP28 290356Z AUTO 18005KT 22/19 A2994 RMK AO1 SLP126 T02220194





000
SAUS43 KDDC 290257
MTRP28
METAR KP28 290256Z AUTO 16006KT 23/18 A2992 RMK AO1 SLP120 T02330183
51012





000
SAUS43 KDDC 290157
MTRP28
METAR KP28 290156Z AUTO 15007KT 24/18 A2990 RMK AO1 SLP113 T02390183





000
SAUS43 KDDC 290057
MTRP28
METAR KP28 290056Z AUTO 15005KT 25/18 A2991 RMK AO1 SLP114 T02500183





000
SAUS43 KDDC 290057
MTRP28
METAR KP28 290056Z AUTO 15005KT 25/18 A2991 RMK AO1 SLP114 T02500183





000
SAUS43 KDDC 282357
MTRP28
METAR KP28 282356Z AUTO 16009G18KT 26/18 A2989 RMK AO1 SLP106
T02610178 10278 20233 55019





000
SAUS43 KDDC 282357
MTRP28
METAR KP28 282356Z AUTO 16009G18KT 26/18 A2989 RMK AO1 SLP106
T02610178 10278 20233 55019





000
SAUS43 KDDC 282257
MTRP28
METAR KP28 282256Z AUTO 15010G20KT 27/18 A2988 RMK AO1 SLP104
T02720183





000
SAUS43 KDDC 282157
MTRP28
METAR KP28 282156Z AUTO 16009KT 27/18 A2991 RMK AO1 SLP115 T02720178





000
SAUS43 KDDC 282057
MTRP28
METAR KP28 282056Z AUTO 14013G18KT 26/19 A2994 RMK AO1 SLP127
T02610189 58020





000
SAUS43 KDDC 281957
MTRP28
METAR KP28 281956Z AUTO 14013KT 24/19 A2997 RMK AO1 SLP138 T02440189





000
SAUS43 KDDC 281857
MTRP28
METAR KP28 281856Z AUTO 15009KT 25/17 A3001 RMK AO1 SLP149 T02500172





000
SAUS43 KDDC 281757
MTRP28
METAR KP28 281756Z AUTO 13008G15KT 23/18 A3000 RMK AO1 SLP149
T02330178 10233 20178 58002





000
SAUS43 KDDC 281757
MTRP28
METAR KP28 281756Z AUTO 13008G15KT 23/18 A3000 RMK AO1 SLP149
T02330178 10233 20178 58002





000
SAUS43 KDDC 281657
MTRP28
METAR KP28 281656Z AUTO 19003KT 22/18 A3002 RMK AO1 SLP155 T02170178





000
SAUS43 KDDC 281657
MTRP28
METAR KP28 281656Z AUTO 19003KT 22/18 A3002 RMK AO1 SLP155 T02170178





000
SAUS43 KDDC 281557
MTRP28
METAR KP28 281556Z AUTO 17005KT 21/19 A3001 RMK AO1 SLP151 T02110189





000
SAUS43 KDDC 281557
MTRP28
METAR KP28 281556Z AUTO 17005KT 21/19 A3001 RMK AO1 SLP151 T02110189





000
SAUS43 KDDC 281503
MTRP28
METAR KP28 281456Z AUTO 16006KT 19/18 A3001 RMK AO1 SLP151 T01940183
53001





000
SAUS43 KDDC 281503
MTRP28
METAR KP28 281456Z AUTO 16006KT 19/18 A3001 RMK AO1 SLP151 T01940183
53001





000
SAUS43 KDDC 281403
MTRP28
METAR KP28 281356Z AUTO 12008KT 19/17 A2997 RMK AO1 SLP137 T01890172





000
SAUS43 KDDC 281303
MTRP28
METAR KP28 281256Z AUTO 12009KT 18/17 A3000 RMK AO1 SLP148 T01830172





000
SAUS43 KDDC 281203
MTRP28
METAR KP28 281156Z AUTO 08009KT 18/17 A3001 RMK AO1 SLP150 70004
T01780167 10183 20167 55001





000
SAUS43 KDDC 281103
MTRP28
METAR KP28 281056Z AUTO 17006KT 18/17 A2998 RMK AO1 PRESFR SLP139
T01780167





000
SAUS43 KDDC 281103
MTRP28
METAR KP28 281056Z AUTO 17006KT 18/17 A2998 RMK AO1 PRESFR SLP139
T01780167





000
SAUS43 KDDC 281003
MTRP28
METAR KP28 280956Z AUTO 20003KT 17/17 A3003 RMK AO1 SLP157 T01720167





000
SAUS43 KDDC 280903
MTRP28
METAR KP28 280856Z AUTO 00000KT 17/16 A3001 RMK AO1 SLP150 T01720161
56015





000
SAUS43 KDDC 280803
MTRP28
METAR KP28 280756Z AUTO 15003KT 17/17 A3002 RMK AO1 SLP152 T01720167





000
SAUS43 KDDC 280703
MTRP28
METAR KP28 280656Z AUTO 08008KT 17/17 A3000 RMK AO1 SLP147 T01720167





000
SAUS43 KDDC 280603
MTRP28
METAR KP28 280556Z AUTO 02007KT 18/17 A3006 RMK AO1 SLP165 P0004
60004 T01780167 10256 20178 402830133 50011





000
SAUS43 KDDC 280603
MTRP28
METAR KP28 280556Z AUTO 02007KT 18/17 A3006 RMK AO1 SLP165 P0004
60004 T01780167 10256 20178 402830133 50011





000
SAUS43 KDDC 280503
MTRP28
METAR KP28 280456Z AUTO 18004KT 21/19 A3007 RMK AO1 SLP169 T02110194





000
SAUS43 KDDC 280503
MTRP28
METAR KP28 280456Z AUTO 18004KT 21/19 A3007 RMK AO1 SLP169 T02110194





000
SAUS43 KDDC 280403
MTRP28
METAR KP28 280356Z AUTO 15006KT 22/19 A3005 RMK AO1 SLP163 T02220194





000
SAUS43 KDDC 280303
MTRP28
METAR KP28 280256Z AUTO 14005KT 22/20 A3002 RMK AO1 SLP155 T02220200
51014





000
SAUS43 KDDC 280203
MTRP28
METAR KP28 280156Z AUTO 15005KT 23/19 A3002 RMK AO1 SLP155 T02330194





000
SAUS43 KDDC 280103
MTRP28
METAR KP28 280056Z AUTO 15005KT 24/18 A2999 RMK AO1 SLP143 T02440178





000
SAUS43 KDDC 280003
MTRP28
METAR KP28 272356Z AUTO 13007KT 26/17 A2998 RMK AO1 SLP142 T02560172
10283 20256 56011





000
SAUS43 KDDC 272303
MTRP28
METAR KP28 272256Z AUTO 14009KT 27/17 A2999 RMK AO1 SLP146 T02670167





000
SAUS43 KDDC 272203
MTRP28
METAR KP28 272156Z AUTO 12013G18KT 28/17 A2999 RMK AO1 SLP144
T02780172





000
SAUS43 KDDC 272103
MTRP28
METAR KP28 272056Z AUTO 12010G18KT 28/17 A3002 RMK AO1 SLP151
T02780172 58020





000
SAUS43 KDDC 272003
MTRP28
METAR KP28 271956Z AUTO 12008G16KT 27/17 A3005 RMK AO1 SLP162
T02720172





000
SAUS43 KDDC 271903
MTRP28
METAR KP28 271856Z AUTO 11010KT 27/17 A3006 RMK AO1 SLP169 T02670167





000
SAUS43 KDDC 271903
MTRP28
METAR KP28 271856Z AUTO 11010KT 27/17 A3006 RMK AO1 SLP169 T02670167





    US Dept of Commerce
    National Oceanic and Atmospheric Administration
    National Weather Service
    1325 East West Highway
    Silver Spring, MD 20910
    Page Author: NWS Internet Services Team
Disclaimer
Information Quality
Credits
Glossary
Privacy Policy
Freedom of Information Act (FOIA)
About Us
Career Opportunities